Main page
METAR-TAF:

METAR-TAF

Airports :

Qaisumah, Saudi Arabia

Al Qaisumah/Hafr Al Batin Airport

latitude: 28-19N, longitude: 046-07E, elevation: 358 m

Current weather observation

The report was made 19 minutes ago, at 16:00 UTC
Calm wind
Temperature 15°C
Humidity 41%
Pressure 1026 hPa
Visibility 10 km or more
no clouds below 1500 m and no cumulonimbus

METAR: OEPA 181600Z 00000KT CAVOK 15/02 Q1026 NOSIG

Time: 19:19 (16:19 UTC)

Forecast

The report was made 5 hours and 19 minutes ago, at 11:00 UTC
Forecast valid from 18 at 12 UTC to 19 at 18 UTC
Wind 10 kt from the West/Northwest
Visibility: 7000 m
Becoming
from 18 at 16 UTC to 18 at 18 UTC
Wind 3 kt from variable directions

TAF: OEPA 181100Z 1812/1918 29010KT 7000 NSC BECMG 1816/1818 VRB03KT

Weather observations and forecasts of more than 4000 airports (METAR and TAF reports).

The available stations are represented by yellow and red dots on the map.

Hover mouse over dot to see the name of the station.

Then click to see weather observations and forecasts.

To change the map : click on the green buttons with a black cross to zoom in, on the green button with a dash to zoom out, or on the green arrows for adjacent maps.


METAR-TAF: